Time;durP1;ratioP1;P1;durP2;ratioP2;P2;SDS_P1;SDS_P2;PMS_P1;PMS_P2;Temp;Humidity;BMP_temperature;BMP_pressure;BME280_temperature;BME280_humidity;BME280_pressure;Samples;Min_cycle;Max_cycle;Signal;HPM_P1;HPM_P2
2022/06/25 00:02:26;;;;;;;5.15;1.00;;;13.90;99.90;;;;;;5091656;28;20057;-58
2022/06/25 00:07:39;;;;;;;5.57;0.82;;;13.70;99.90;;;;;;5090399;28;20048;-58
2022/06/25 00:10:07;;;;;;;5.55;0.95;;;13.60;99.90;;;;;;5088443;28;20059;-56
2022/06/25 00:12:36;;;;;;;1.52;0.90;;;13.50;99.90;;;;;;5090544;28;20059;-56
2022/06/25 00:15:06;;;;;;;6.32;0.80;;;13.50;99.90;;;;;;5089141;28;20048;-58
2022/06/25 00:17:33;;;;;;;2.08;0.77;;;13.40;99.90;;;;;;5090888;28;20167;-59
2022/06/25 00:20:03;;;;;;;4.18;1.10;;;13.40;99.90;;;;;;5108547;28;20479;-58
2022/06/25 00:22:31;;;;;;;3.20;0.70;;;13.30;99.90;;;;;;5110849;28;20048;-58
2022/06/25 00:24:59;;;;;;;2.00;0.63;;;13.30;99.90;;;;;;5110718;28;20051;-57
2022/06/25 00:27:27;;;;;;;4.55;0.80;;;13.20;99.90;;;;;;5110466;28;20487;-58
2022/06/25 00:29:54;;;;;;;3.17;0.73;;;13.10;99.90;;;;;;5110533;28;20051;-58
2022/06/25 00:32:22;;;;;;;2.83;0.90;;;13.10;99.90;;;;;;5107562;28;20040;-57
2022/06/25 00:34:50;;;;;;;2.60;1.13;;;13.10;99.90;;;;;;5110602;28;20403;-58
2022/06/25 00:37:17;;;;;;;7.88;1.15;;;13.00;99.90;;;;;;5109568;28;20055;-58
2022/06/25 00:39:46;;;;;;;4.03;0.75;;;13.00;99.90;;;;;;5092424;28;20043;-58
2022/06/25 00:42:14;;;;;;;1.92;0.80;;;13.00;99.90;;;;;;5089853;28;20055;-58
2022/06/25 00:44:42;;;;;;;3.83;0.60;;;13.00;99.90;;;;;;5088740;28;20040;-58
2022/06/25 00:47:14;;;;;;;3.95;0.77;;;12.90;99.90;;;;;;5107448;28;20048;-58
2022/06/25 00:49:42;;;;;;;1.95;0.50;;;12.90;99.90;;;;;;5089371;28;20048;-58
2022/06/25 00:52:22;;;;;;;4.50;0.75;;;12.80;99.90;;;;;;5088811;28;20055;-58
2022/06/25 00:54:58;;;;;;;7.13;0.68;;;12.80;99.90;;;;;;5072173;28;20059;-57
2022/06/25 00:57:28;;;;;;;7.35;1.20;;;12.80;99.90;;;;;;5108543;28;20056;-58
2022/06/25 01:00:00;;;;;;;7.03;1.25;;;12.80;99.90;;;;;;5090774;28;20040;-58
2022/06/25 01:02:28;;;;;;;5.25;0.70;;;12.90;99.90;;;;;;5096455;28;20058;-58
2022/06/25 01:04:56;;;;;;;9.98;1.75;;;12.90;99.90;;;;;;5105482;28;20062;-58
2022/06/25 01:07:24;;;;;;;2.88;0.55;;;12.90;99.90;;;;;;5105976;28;20044;-59
2022/06/25 01:09:52;;;;;;;5.35;1.02;;;13.00;99.90;;;;;;5093777;28;20047;-57
2022/06/25 01:12:20;;;;;;;2.88;0.80;;;12.90;99.90;;;;;;5109054;28;20047;-58
2022/06/25 01:15:00;;;;;;;3.55;0.82;;;12.90;99.90;;;;;;5109060;28;20051;-58
2022/06/25 01:17:29;;;;;;;2.67;0.82;;;12.90;99.90;;;;;;5093962;28;20498;-57
2022/06/25 01:19:57;;;;;;;3.83;0.68;;;12.80;99.90;;;;;;5088254;28;20040;-58
2022/06/25 01:22:25;;;;;;;4.75;0.82;;;12.80;99.90;;;;;;5099173;28;20063;-58
2022/06/25 01:24:52;;;;;;;4.32;0.82;;;12.70;99.90;;;;;;5109852;28;20050;-58
2022/06/25 01:27:20;;;;;;;7.80;0.65;;;12.70;99.90;;;;;;5109941;28;20486;-57
2022/06/25 01:29:48;;;;;;;2.67;0.60;;;12.60;99.90;;;;;;5095811;28;20495;-58
2022/06/25 01:32:15;;;;;;;4.75;0.80;;;12.60;99.90;;;;;;5104746;28;20391;-58
2022/06/25 01:34:43;;;;;;;5.03;0.93;;;12.50;99.90;;;;;;5097329;28;20043;-58
2022/06/25 01:37:10;;;;;;;3.78;0.60;;;12.50;99.90;;;;;;5115608;28;20040;-57
2022/06/25 01:39:38;;;;;;;5.60;0.70;;;12.40;99.90;;;;;;5112958;28;20047;-58
2022/06/25 01:42:06;;;;;;;11.30;0.90;;;12.40;99.90;;;;;;5114197;28;20040;-56
2022/06/25 01:44:37;;;;;;;3.97;0.95;;;12.40;99.90;;;;;;5115254;28;20402;-59
2022/06/25 01:47:04;;;;;;;6.78;0.90;;;12.40;99.90;;;;;;5112957;28;20708;-56
2022/06/25 01:49:32;;;;;;;6.45;2.00;;;12.40;99.90;;;;;;5113811;28;20514;-57
2022/06/25 01:51:59;;;;;;;3.47;1.00;;;12.40;99.90;;;;;;5115329;28;20044;-58
2022/06/25 01:54:27;;;;;;;9.23;1.40;;;12.40;99.90;;;;;;5115268;28;20043;-57
2022/06/25 01:56:56;;;;;;;3.13;1.30;;;12.40;99.90;;;;;;5113892;28;20051;-57
2022/06/25 01:59:23;;;;;;;7.20;1.40;;;12.40;99.90;;;;;;5113348;28;20046;-56
2022/06/25 02:01:51;;;;;;;8.57;1.60;;;12.30;99.90;;;;;;5113943;28;20050;-57
2022/06/25 02:04:19;;;;;;;5.13;0.90;;;12.30;99.90;;;;;;5113639;28;20043;-58
2022/06/25 02:06:47;;;;;;;6.78;1.23;;;12.30;99.90;;;;;;5114694;28;20040;-58
2022/06/25 02:09:14;;;;;;;6.28;1.23;;;12.20;99.90;;;;;;5113736;28;20498;-59
2022/06/25 02:11:42;;;;;;;2.28;1.17;;;12.20;99.90;;;;;;5113706;28;20063;-59
2022/06/25 02:14:09;;;;;;;6.70;2.03;;;12.20;99.90;;;;;;5113301;28;20047;-58
2022/06/25 02:16:37;;;;;;;9.13;1.45;;;12.10;99.90;;;;;;5113116;28;20055;-58
2022/06/25 02:19:05;;;;;;;6.43;1.90;;;12.10;99.90;;;;;;5113659;28;20518;-57
2022/06/25 02:21:32;;;;;;;5.88;1.10;;;12.10;99.90;;;;;;5114770;28;20035;-56
2022/06/25 02:24:00;;;;;;;5.95;1.10;;;12.00;99.90;;;;;;5114669;28;20043;-57
2022/06/25 02:26:30;;;;;;;;;;;12.00;99.90;;;;;;5113843;28;20039;-55
2022/06/25 02:28:59;;;;;;;8.75;2.05;;;11.90;99.90;;;;;;5114442;28;19919;-56
2022/06/25 02:31:30;;;;;;;12.68;1.65;;;11.90;99.90;;;;;;5114566;28;20055;-55
2022/06/25 02:33:58;;;;;;;7.03;1.70;;;11.90;99.90;;;;;;5114429;28;20401;-56
2022/06/25 02:36:26;;;;;;;4.53;1.15;;;11.80;99.90;;;;;;5113128;28;20048;-56
2022/06/25 02:38:54;;;;;;;5.20;1.50;;;11.80;99.90;;;;;;5111917;28;20046;-55
2022/06/25 02:41:22;;;;;;;2.13;1.38;;;11.70;99.90;;;;;;5113302;28;20048;-56
2022/06/25 02:43:50;;;;;;;7.68;1.85;;;11.70;99.90;;;;;;5114468;28;20129;-59
2022/06/25 02:46:31;;;;;;;6.60;1.10;;;11.70;99.90;;;;;;5113042;28;20044;-59
2022/06/25 02:49:01;;;;;;;5.50;1.20;;;11.60;99.90;;;;;;5112768;28;20047;-58
2022/06/25 02:51:29;;;;;;;5.22;1.45;;;11.60;99.90;;;;;;5112836;28;20050;-58
2022/06/25 02:53:57;;;;;;;7.38;1.80;;;11.60;99.90;;;;;;5112904;28;20398;-58
2022/06/25 02:59:11;;;;;;;11.55;2.70;;;11.50;99.90;;;;;;5112817;28;20039;-58
2022/06/25 03:01:43;;;;;;;7.13;1.20;;;11.50;99.90;;;;;;5112669;28;20054;-56
2022/06/25 03:04:12;;;;;;;5.57;1.77;;;11.40;99.90;;;;;;5112782;28;20043;-59
2022/06/25 03:06:40;;;;;;;16.90;3.17;;;11.40;99.90;;;;;;5113929;28;20051;-59
2022/06/25 03:09:10;;;;;;;6.80;1.67;;;11.40;99.90;;;;;;5095931;28;20043;-58
2022/06/25 03:11:38;;;;;;;5.93;1.33;;;11.40;99.90;;;;;;5112594;28;20032;-57
2022/06/25 03:14:07;;;;;;;4.47;1.10;;;11.30;99.90;;;;;;5112264;28;20048;-63
2022/06/25 03:16:34;;;;;;;9.80;1.50;;;11.30;99.90;;;;;;5112742;28;20039;-59
2022/06/25 03:19:05;;;;;;;12.30;1.75;;;11.30;99.90;;;;;;5112435;28;20054;-59
2022/06/25 03:21:53;;;;;;;9.80;1.70;;;11.30;99.90;;;;;;5112395;28;20058;-58
2022/06/25 03:24:23;;;;;;;7.15;2.63;;;11.20;99.90;;;;;;5112364;28;20051;-56
2022/06/25 03:26:51;;;;;;;5.57;1.40;;;11.20;99.90;;;;;;5113325;28;20054;-58
2022/06/25 03:29:19;;;;;;;4.90;1.38;;;11.20;99.90;;;;;;5113215;28;20039;-57
2022/06/25 03:31:48;;;;;;;8.20;1.77;;;11.20;99.90;;;;;;5112231;28;20486;-58
2022/06/25 03:34:34;;;;;;;5.00;1.70;;;11.20;99.90;;;;;;5112288;28;20048;-58
2022/06/25 03:37:02;;;;;;;8.40;1.88;;;11.10;99.90;;;;;;5095011;28;20047;-55
2022/06/25 03:39:30;;;;;;;7.90;1.23;;;11.10;99.90;;;;;;5111883;28;20055;-56
2022/06/25 03:41:58;;;;;;;8.52;1.88;;;11.10;99.90;;;;;;5111761;28;20055;-57
2022/06/25 03:44:35;;;;;;;12.40;1.33;;;11.10;99.90;;;;;;5111763;28;20047;-56
2022/06/25 03:47:29;;;;;;;8.32;1.50;;;11.10;99.90;;;;;;5109908;28;20063;-56
2022/06/25 03:49:59;;;;;;;10.18;1.10;;;11.10;99.90;;;;;;5111227;28;20044;-57
2022/06/25 03:52:27;;;;;;;13.98;1.75;;;11.10;99.90;;;;;;5111824;28;20047;-56
2022/06/25 03:54:54;;;;;;;8.35;1.48;;;11.10;99.90;;;;;;5112874;28;20044;-56
2022/06/25 03:57:22;;;;;;;10.82;1.20;;;11.10;99.90;;;;;;5111618;28;20394;-58
2022/06/25 04:00:14;;;;;;;13.07;1.38;;;11.10;99.90;;;;;;5111637;28;20118;-58
2022/06/25 04:02:59;;;;;;;3.90;1.00;;;11.10;99.90;;;;;;5110860;28;20066;-58
2022/06/25 04:05:30;;;;;;;8.45;1.15;;;11.10;99.90;;;;;;5112769;28;20058;-58
2022/06/25 04:08:06;;;;;;;3.67;0.98;;;11.10;99.90;;;;;;5094415;28;20519;-56
2022/06/25 04:10:33;;;;;;;6.50;1.23;;;11.10;99.90;;;;;;5112617;28;20039;-59
2022/06/25 04:13:04;;;;;;;4.43;0.57;;;11.10;99.90;;;;;;5111273;28;20063;-58
2022/06/25 04:15:33;;;;;;;6.68;1.33;;;11.10;99.90;;;;;;5111247;28;20479;-58
2022/06/25 04:18:02;;;;;;;6.95;1.30;;;11.10;99.90;;;;;;5111258;28;20050;-58
2022/06/25 04:20:32;;;;;;;8.70;1.50;;;11.10;99.90;;;;;;5111251;28;20040;-56
2022/06/25 04:23:00;;;;;;;5.88;0.82;;;11.10;99.90;;;;;;5111213;28;20046;-58
2022/06/25 04:25:31;;;;;;;9.75;1.20;;;11.10;99.90;;;;;;5094640;28;20372;-58
2022/06/25 04:30:45;;;;;;;7.45;1.38;;;11.00;99.90;;;;;;5110923;28;20648;-56
2022/06/25 04:33:14;;;;;;;3.70;0.90;;;11.00;99.90;;;;;;5111022;28;20479;-58
2022/06/25 04:35:55;;;;;;;4.75;0.93;;;11.10;99.90;;;;;;5111135;28;20047;-58
2022/06/25 04:38:41;;;;;;;12.32;1.60;;;11.00;99.90;;;;;;5111079;28;20035;-58
2022/06/25 04:41:09;;;;;;;8.10;1.48;;;11.00;99.90;;;;;;5110695;28;20051;-57
2022/06/25 04:43:38;;;;;;;8.93;1.25;;;11.10;99.90;;;;;;5111032;28;20040;-57
2022/06/25 04:46:11;;;;;;;5.00;1.08;;;11.10;99.90;;;;;;5110935;28;20051;-56
2022/06/25 04:48:41;;;;;;;10.32;1.58;;;11.00;99.90;;;;;;5093788;28;20044;-56
2022/06/25 04:51:08;;;;;;;4.45;0.73;;;11.10;99.90;;;;;;5088233;28;20383;-58
2022/06/25 04:53:54;;;;;;;3.83;1.25;;;11.10;99.90;;;;;;5086927;28;20514;-57
2022/06/25 04:56:42;;;;;;;7.10;1.13;;;11.10;99.90;;;;;;5086948;28;20039;-57
2022/06/25 04:59:12;;;;;;;6.22;0.98;;;11.10;99.90;;;;;;5101320;28;20048;-58
2022/06/25 05:02:14;;;;;;;7.40;2.47;;;11.10;99.90;;;;;;5089393;28;20043;-57
2022/06/25 05:04:54;;;;;;;;;;;11.10;99.90;;;;;;5110389;28;20051;-56
2022/06/25 05:07:22;;;;;;;7.50;1.30;;;11.20;99.90;;;;;;5107170;28;19924;-57
2022/06/25 05:09:50;;;;;;;10.90;0.90;;;11.10;99.90;;;;;;5090362;28;20502;-56
2022/06/25 05:15:07;;;;;;;10.25;1.13;;;11.20;99.90;;;;;;5092751;28;20388;-56
2022/06/25 05:17:36;;;;;;;11.07;1.10;;;11.20;99.90;;;;;;5091072;28;20494;-57
2022/06/25 05:20:05;;;;;;;15.07;1.50;;;11.30;99.90;;;;;;5089399;28;20059;-58
2022/06/25 05:22:33;;;;;;;8.00;1.67;;;11.30;99.90;;;;;;5092178;28;20052;-58
2022/06/25 05:25:00;;;;;;;6.00;1.05;;;11.30;99.90;;;;;;5091398;28;20048;-59
2022/06/25 05:27:28;;;;;;;9.13;1.33;;;11.30;99.90;;;;;;5092255;28;20051;-58
2022/06/25 05:29:57;;;;;;;7.13;1.17;;;11.30;99.90;;;;;;5075524;28;20059;-59
2022/06/25 05:32:25;;;;;;;3.30;1.05;;;11.30;99.90;;;;;;5089202;28;20036;-57
2022/06/25 05:34:54;;;;;;;5.18;1.13;;;11.40;99.90;;;;;;5090646;28;20047;-56
2022/06/25 05:37:22;;;;;;;13.88;2.53;;;11.40;99.90;;;;;;5092370;28;20044;-57
2022/06/25 05:39:50;;;;;;;6.32;1.15;;;11.40;99.90;;;;;;5091250;28;20395;-57
2022/06/25 05:42:20;;;;;;;6.00;1.00;;;11.40;99.90;;;;;;5090441;28;20407;-58
2022/06/25 05:44:48;;;;;;;11.15;1.90;;;11.50;99.90;;;;;;5090037;28;20040;-56
2022/06/25 05:47:15;;;;;;;8.02;1.55;;;11.50;99.90;;;;;;5090075;28;20044;-56
2022/06/25 05:49:43;;;;;;;7.35;1.30;;;11.60;99.90;;;;;;5090775;28;20051;-59
2022/06/25 05:52:11;;;;;;;7.72;1.02;;;11.60;99.90;;;;;;5092974;28;20051;-59
2022/06/25 05:54:38;;;;;;;10.85;1.23;;;11.60;99.90;;;;;;5093072;28;20483;-59
2022/06/25 05:57:07;;;;;;;9.38;1.77;;;11.70;99.90;;;;;;5091770;28;20047;-57
2022/06/25 05:59:34;;;;;;;8.68;1.63;;;11.80;99.90;;;;;;5093683;28;20051;-59
2022/06/25 06:02:02;;;;;;;4.85;1.05;;;11.80;99.90;;;;;;5090225;28;20044;-59
2022/06/25 06:04:30;;;;;;;6.75;2.22;;;11.90;99.90;;;;;;5103616;28;20048;-57
2022/06/25 06:07:00;;;;;;;9.95;1.35;;;12.00;99.90;;;;;;5111001;28;20047;-59
2022/06/25 06:09:28;;;;;;;7.20;1.20;;;12.00;99.90;;;;;;5074822;28;20055;-59
2022/06/25 06:11:56;;;;;;;11.93;2.05;;;12.10;99.90;;;;;;5092720;28;20048;-59
2022/06/25 06:14:27;;;;;;;9.35;1.13;;;12.20;99.90;;;;;;5094620;28;20048;-59
2022/06/25 06:16:56;;;;;;;5.97;1.38;;;12.30;99.90;;;;;;5092959;28;20056;-60
2022/06/25 06:19:24;;;;;;;8.63;1.20;;;12.40;99.90;;;;;;5093714;28;20051;-59
2022/06/25 06:21:52;;;;;;;10.35;2.30;;;12.40;99.90;;;;;;5094392;28;20044;-58
2022/06/25 06:24:19;;;;;;;7.90;1.25;;;12.50;99.90;;;;;;5093032;28;20134;-57
2022/06/25 06:26:47;;;;;;;13.32;1.25;;;12.50;99.90;;;;;;5090149;28;20063;-58
2022/06/25 06:29:15;;;;;;;7.68;1.33;;;12.50;99.90;;;;;;5089255;28;20043;-59
2022/06/25 06:31:42;;;;;;;8.80;1.27;;;12.40;99.90;;;;;;5089121;28;20044;-57
2022/06/25 06:34:10;;;;;;;6.63;1.65;;;12.40;99.90;;;;;;5088006;28;20056;-58
2022/06/25 06:36:37;;;;;;;9.77;1.67;;;12.50;99.90;;;;;;5091013;28;20550;-58
2022/06/25 06:39:05;;;;;;;7.22;1.30;;;12.50;99.90;;;;;;5092182;28;20415;-57
2022/06/25 06:41:33;;;;;;;7.55;1.55;;;12.50;99.90;;;;;;5092059;28;20479;-58
2022/06/25 06:44:01;;;;;;;6.93;2.47;;;12.50;99.90;;;;;;5092150;28;20047;-58
2022/06/25 06:46:29;;;;;;;8.60;1.35;;;12.60;99.90;;;;;;5092115;28;20043;-58
2022/06/25 06:48:56;;;;;;;14.02;1.88;;;12.70;99.90;;;;;;5091972;28;20043;-58
2022/06/25 06:51:24;;;;;;;8.02;1.13;;;12.70;99.90;;;;;;5092212;28;20086;-59
2022/06/25 06:53:52;;;;;;;6.53;1.40;;;12.80;99.90;;;;;;5090775;28;20048;-58
2022/06/25 06:56:19;;;;;;;6.35;1.00;;;12.90;99.90;;;;;;5091743;28;20044;-57
2022/06/25 06:58:48;;;;;;;7.32;1.25;;;13.00;99.90;;;;;;5090096;28;20052;-58
2022/06/25 07:01:16;;;;;;;11.53;1.47;;;13.00;99.90;;;;;;5072583;28;20523;-58
2022/06/25 07:03:44;;;;;;;5.05;1.08;;;13.10;99.90;;;;;;5089295;28;20391;-56
2022/06/25 07:06:12;;;;;;;13.50;1.52;;;13.20;99.90;;;;;;5089335;28;20040;-56
2022/06/25 07:08:39;;;;;;;5.97;1.23;;;13.20;99.90;;;;;;5091782;28;20689;-58
2022/06/25 07:11:28;;;;;;;7.22;2.15;;;13.30;99.90;;;;;;5091707;28;20048;-59
2022/06/25 07:14:06;;;;;;;7.60;1.27;;;13.30;99.90;;;;;;5091889;28;20063;-57
2022/06/25 07:16:34;;;;;;;7.63;1.48;;;13.30;99.90;;;;;;5090879;28;20057;-57
2022/06/25 07:19:02;;;;;;;5.43;1.27;;;13.40;99.90;;;;;;5106574;28;20039;-56
2022/06/25 07:21:30;;;;;;;3.10;1.00;;;13.40;99.90;;;;;;5106427;27;20055;-58
2022/06/25 07:23:57;;;;;;;7.10;1.20;;;13.50;99.90;;;;;;5073508;28;20372;-58
2022/06/25 07:26:26;;;;;;;8.13;0.98;;;13.60;99.90;;;;;;5090775;28;20040;-58
2022/06/25 07:28:54;;;;;;;6.15;1.45;;;13.60;99.90;;;;;;5091074;28;20040;-58
2022/06/25 07:31:22;;;;;;;6.53;1.45;;;13.70;99.90;;;;;;5089839;28;20059;-58
2022/06/25 07:33:50;;;;;;;11.63;1.52;;;13.80;99.90;;;;;;5091137;28;20126;-58
2022/06/25 07:36:18;;;;;;;10.25;2.03;;;13.80;99.90;;;;;;5091671;28;20049;-57
2022/06/25 07:38:47;;;;;;;4.28;1.05;;;13.90;99.90;;;;;;5104025;28;20050;-56
2022/06/25 07:41:14;;;;;;;7.40;1.70;;;13.90;99.90;;;;;;5111726;28;20054;-56
2022/06/25 07:43:42;;;;;;;7.68;1.85;;;14.00;99.90;;;;;;5109797;28;20474;-57
2022/06/25 07:46:09;;;;;;;9.90;1.38;;;14.10;99.90;;;;;;5109525;28;20035;-59
2022/06/25 07:48:38;;;;;;;7.97;1.38;;;14.20;99.90;;;;;;5097951;28;20279;-59
2022/06/25 07:53:52;;;;;;;7.65;1.10;;;14.40;99.90;;;;;;5091002;28;20040;-58
2022/06/25 07:56:20;;;;;;;3.60;0.98;;;14.50;99.90;;;;;;5090622;28;20052;-59
2022/06/25 07:58:48;;;;;;;6.22;1.50;;;14.50;99.90;;;;;;5089234;28;20044;-58
2022/06/25 08:01:15;;;;;;;6.63;1.13;;;14.50;99.90;;;;;;5089305;28;20048;-59
2022/06/25 08:03:43;;;;;;;6.78;1.30;;;14.50;99.90;;;;;;5090696;28;20047;-59
2022/06/25 08:06:12;;;;;;;8.57;1.58;;;14.50;99.90;;;;;;5072795;28;20066;-58
2022/06/25 08:08:40;;;;;;;5.30;1.48;;;14.50;99.90;;;;;;5090442;28;20044;-59
2022/06/25 08:11:09;;;;;;;7.80;1.17;;;14.50;99.90;;;;;;5090166;28;20056;-59
2022/06/25 08:13:39;;;;;;;6.28;1.75;;;14.60;99.90;;;;;;5090243;28;20047;-59
2022/06/25 08:16:09;;;;;;;5.32;1.00;;;14.80;99.90;;;;;;5089714;28;20040;-59
2022/06/25 08:18:38;;;;;;;5.28;1.50;;;14.90;99.90;;;;;;5085391;28;20040;-59
2022/06/25 08:21:06;;;;;;;9.25;1.83;;;15.10;99.90;;;;;;5086792;28;20509;-59
2022/06/25 08:23:34;;;;;;;3.70;0.77;;;15.20;99.90;;;;;;5090335;28;20048;-59
2022/06/25 08:26:02;;;;;;;9.82;1.25;;;15.30;99.90;;;;;;5089064;28;20040;-59
2022/06/25 08:28:30;;;;;;;7.82;1.58;;;15.40;99.90;;;;;;5090044;28;20040;-59
2022/06/25 08:30:57;;;;;;;7.15;1.58;;;15.60;99.90;;;;;;5090090;28;20044;-59
2022/06/25 08:33:25;;;;;;;4.97;1.73;;;15.70;99.90;;;;;;5090257;28;20133;-59
2022/06/25 08:35:53;;;;;;;9.48;1.23;;;15.80;99.90;;;;;;5090427;28;20058;-59
2022/06/25 08:38:20;;;;;;;6.97;1.50;;;15.90;99.90;;;;;;5090311;28;20059;-58
2022/06/25 08:40:48;;;;;;;3.55;1.08;;;15.90;99.90;;;;;;5090021;28;20074;-59
2022/06/25 08:43:16;;;;;;;10.00;1.20;;;16.00;99.90;;;;;;5089854;28;20051;-59
2022/06/25 08:45:43;;;;;;;4.65;1.02;;;16.10;99.90;;;;;;5090058;28;20044;-60
2022/06/25 08:48:18;;;;;;;6.38;1.10;;;16.10;99.90;;;;;;5089950;28;20395;-58
2022/06/25 08:50:48;;;;;;;3.33;0.60;;;16.00;99.90;;;;;;5089900;28;20040;-59
2022/06/25 08:53:17;;;;;;;9.38;1.27;;;16.00;99.90;;;;;;5088481;28;20427;-59
2022/06/25 08:55:46;;;;;;;6.25;1.02;;;16.00;99.90;;;;;;5089792;28;20039;-58
2022/06/25 08:58:14;;;;;;;7.78;1.05;;;16.10;99.90;;;;;;5089771;28;20036;-59
2022/06/25 09:00:45;;;;;;;4.70;1.13;;;16.10;99.90;;;;;;5089787;28;20426;-60
2022/06/25 09:03:13;;;;;;;2.80;0.80;;;16.10;99.90;;;;;;5089721;28;20048;-60
2022/06/25 09:05:42;;;;;;;7.65;1.65;;;16.10;99.90;;;;;;5089837;28;20407;-59
2022/06/25 09:08:14;;;;;;;8.55;1.13;;;16.00;99.90;;;;;;5090160;28;20391;-58
2022/06/25 09:10:44;;;;;;;4.80;1.02;;;16.00;99.90;;;;;;5089681;28;20048;-59
2022/06/25 09:13:13;;;;;;;2.08;0.95;;;16.00;99.90;;;;;;5089518;28;20051;-59
2022/06/25 09:15:45;;;;;;;7.30;1.05;;;16.00;99.90;;;;;;5089760;28;20044;-59
2022/06/25 09:18:14;;;;;;;7.57;1.10;;;16.10;99.90;;;;;;5089555;28;20048;-59
2022/06/25 09:21:05;;;;;;;7.80;1.23;;;16.10;99.90;;;;;;5089791;28;20044;-60
2022/06/25 09:23:35;;;;;;;4.30;0.70;;;16.20;99.90;;;;;;5090169;28;20051;-61
2022/06/25 09:26:09;;;;;;;5.20;1.00;;;16.30;99.90;;;;;;5089674;28;20044;-59
2022/06/25 09:28:40;;;;;;;2.90;0.57;;;16.40;99.90;;;;;;5096283;28;20044;-59
2022/06/25 09:31:08;;;;;;;6.28;0.73;;;16.60;99.90;;;;;;5089479;28;20480;-58
2022/06/25 09:33:39;;;;;;;4.70;0.80;;;16.70;99.90;;;;;;5088471;28;20055;-59
2022/06/25 09:36:09;;;;;;;2.20;0.88;;;16.90;99.70;;;;;;5089678;28;20044;-57
2022/06/25 09:38:49;;;;;;;3.03;0.85;;;17.10;97.90;;;;;;5088079;28;20056;-57
2022/06/25 09:41:18;;;;;;;0.95;0.70;;;17.20;97.90;;;;;;5089444;28;20395;-59
2022/06/25 09:43:48;;;;;;;5.65;0.95;;;17.20;98.40;;;;;;5088223;28;20043;-59
2022/06/25 09:46:16;;;;;;;5.75;0.88;;;17.40;98.10;;;;;;5087017;28;20051;-60
2022/06/25 09:48:44;;;;;;;1.58;0.63;;;17.50;98.40;;;;;;5087885;28;20047;-57
2022/06/25 09:51:11;;;;;;;4.40;1.85;;;17.60;98.30;;;;;;5090931;28;20368;-57
2022/06/25 09:53:49;;;;;;;6.93;1.05;;;17.50;98.80;;;;;;5093020;28;20055;-56
2022/06/25 09:56:37;;;;;;;5.63;0.82;;;17.40;98.00;;;;;;5092015;28;20062;-56
2022/06/25 09:59:06;;;;;;;4.55;1.08;;;17.10;98.80;;;;;;5089178;28;20048;-56
2022/06/25 10:01:34;;;;;;;4.22;1.02;;;16.70;99.90;;;;;;5092912;28;20063;-57
2022/06/25 10:04:03;;;;;;;7.35;1.20;;;16.30;99.90;;;;;;5091814;28;20047;-56
2022/06/25 10:06:38;;;;;;;6.70;1.17;;;16.00;99.90;;;;;;5093164;28;20041;-57
2022/06/25 10:09:07;;;;;;;5.00;1.10;;;15.90;99.90;;;;;;5093196;28;20055;-56
2022/06/25 10:11:37;;;;;;;10.13;2.90;;;15.90;99.90;;;;;;5092683;28;20043;-56
2022/06/25 10:14:05;;;;;;;4.25;0.80;;;16.10;99.90;;;;;;5092894;28;20048;-57
2022/06/25 10:16:33;;;;;;;3.03;0.80;;;16.40;99.90;;;;;;5092346;28;20059;-59
2022/06/25 10:19:03;;;;;;;6.30;0.88;;;16.60;99.90;;;;;;5091146;28;20047;-58
2022/06/25 10:21:32;;;;;;;12.57;1.20;;;16.80;99.90;;;;;;5092600;28;20052;-59
2022/06/25 10:24:05;;;;;;;2.72;0.60;;;16.90;99.90;;;;;;5092884;28;20040;-60
2022/06/25 10:26:35;;;;;;;5.78;0.60;;;17.10;99.40;;;;;;5092187;28;20388;-60
2022/06/25 10:29:21;;;;;;;1.98;0.63;;;17.30;99.70;;;;;;5092372;28;20040;-59
2022/06/25 10:31:49;;;;;;;5.75;1.00;;;17.40;99.50;;;;;;5092240;28;20127;-59
2022/06/25 10:34:17;;;;;;;2.33;0.85;;;17.50;98.70;;;;;;5092540;28;20055;-59
2022/06/25 10:36:53;;;;;;;5.50;0.80;;;17.50;98.90;;;;;;5092364;28;20130;-59
2022/06/25 10:39:23;;;;;;;3.55;0.90;;;17.70;99.00;;;;;;5092480;28;20040;-59
2022/06/25 10:45:04;;;;;;;2.65;0.70;;;17.90;98.00;;;;;;5092047;28;20395;-57
2022/06/25 10:47:56;;;;;;;2.50;0.75;;;17.90;97.70;;;;;;5092065;28;20423;-58
2022/06/25 10:50:27;;;;;;;4.38;0.82;;;18.10;97.60;;;;;;5092206;28;20067;-59
2022/06/25 10:53:07;;;;;;;6.25;1.30;;;18.30;95.70;;;;;;5092485;28;20036;-59
2022/06/25 10:55:58;;;;;;;8.85;1.17;;;18.30;95.50;;;;;;5092071;28;20044;-58
2022/06/25 10:58:40;;;;;;;1.35;0.70;;;18.40;96.20;;;;;;5091724;28;20055;-59
2022/06/25 11:01:18;;;;;;;4.13;1.02;;;18.40;95.40;;;;;;5090801;28;20058;-59
2022/06/25 11:03:51;;;;;;;5.20;1.00;;;18.60;95.30;;;;;;5090667;28;20519;-59
2022/06/25 11:06:29;;;;;;;4.10;0.82;;;18.80;95.50;;;;;;5091871;28;20059;-59
2022/06/25 11:09:06;;;;;;;4.38;0.85;;;19.00;94.60;;;;;;5091537;28;20048;-59
2022/06/25 11:11:35;;;;;;;2.80;1.17;;;19.10;93.70;;;;;;5091650;28;20059;-60
2022/06/25 11:14:12;;;;;;;3.38;1.10;;;19.20;93.60;;;;;;5091339;28;20056;-59
2022/06/25 11:16:40;;;;;;;4.47;0.70;;;19.30;93.50;;;;;;5091399;28;20044;-59
2022/06/25 11:19:07;;;;;;;7.25;0.80;;;19.20;93.80;;;;;;5091352;28;20052;-59
2022/06/25 11:21:40;;;;;;;5.95;0.90;;;19.30;93.50;;;;;;5090325;28;20063;-59
2022/06/25 11:24:17;;;;;;;0.98;0.60;;;19.30;92.70;;;;;;5091683;28;20044;-59
2022/06/25 11:29:37;;;;;;;5.78;0.77;;;19.50;92.90;;;;;;5091109;28;20388;-59
2022/06/25 11:32:07;;;;;;;4.22;0.95;;;19.60;92.00;;;;;;5091112;28;20609;-59
2022/06/25 11:34:35;;;;;;;4.00;1.00;;;19.80;91.50;;;;;;5091346;28;20391;-59
2022/06/25 11:37:05;;;;;;;4.05;0.80;;;19.90;91.00;;;;;;5094422;28;20035;-59
2022/06/25 11:39:34;;;;;;;4.07;0.90;;;20.10;90.80;;;;;;5091966;28;20051;-59
2022/06/25 11:42:05;;;;;;;2.17;0.77;;;20.20;88.70;;;;;;5089756;28;20423;-58
2022/06/25 11:44:47;;;;;;;5.47;1.65;;;20.20;89.20;;;;;;5090792;28;20055;-59
2022/06/25 11:47:22;;;;;;;8.82;1.00;;;20.30;90.50;;;;;;5091094;28;20052;-59
2022/06/25 11:49:50;;;;;;;1.05;0.57;;;20.60;89.30;;;;;;5089749;28;20387;-59
2022/06/25 11:52:20;;;;;;;4.93;1.33;;;20.80;85.20;;;;;;5091052;28;20048;-59
2022/06/25 11:54:48;;;;;;;2.53;1.05;;;21.10;84.60;;;;;;5091416;28;20055;-58
2022/06/25 11:57:19;;;;;;;2.08;0.60;;;21.10;79.80;;;;;;5090580;28;20048;-58
2022/06/25 11:59:48;;;;;;;3.33;0.70;;;20.90;80.40;;;;;;5090828;28;20055;-57
2022/06/25 12:02:16;;;;;;;3.95;0.80;;;20.60;82.60;;;;;;5087681;28;20507;-58
2022/06/25 12:04:56;;;;;;;2.28;0.65;;;20.40;83.60;;;;;;5087549;28;20051;-59
2022/06/25 12:07:25;;;;;;;3.53;1.08;;;20.30;84.10;;;;;;5090043;28;20044;-59
2022/06/25 12:09:58;;;;;;;2.22;0.57;;;20.10;83.10;;;;;;5090941;28;20055;-62
2022/06/25 12:12:27;;;;;;;6.80;1.65;;;19.90;82.10;;;;;;5090071;28;20407;-59
2022/06/25 12:14:59;;;;;;;3.30;1.00;;;19.80;83.40;;;;;;5090709;28;20048;-60
2022/06/25 12:17:38;;;;;;;2.80;0.80;;;19.50;84.30;;;;;;5089955;28;20056;-59
2022/06/25 12:20:11;;;;;;;6.25;0.70;;;19.40;85.50;;;;;;5090579;28;20059;-63
2022/06/25 12:22:42;;;;;;;4.85;1.20;;;19.20;87.80;;;;;;5090340;28;20506;-60
2022/06/25 12:25:10;;;;;;;5.88;0.80;;;19.00;90.90;;;;;;5090822;28;20044;-60
2022/06/25 12:27:49;;;;;;;5.32;0.82;;;18.90;92.30;;;;;;5090251;28;20510;-57
2022/06/25 12:30:22;;;;;;;2.03;0.75;;;19.30;91.10;;;;;;5090380;28;20044;-56
2022/06/25 12:32:50;;;;;;;10.20;1.17;;;19.40;90.50;;;;;;5090112;28;20529;-57
2022/06/25 12:35:18;;;;;;;3.80;0.63;;;19.40;89.10;;;;;;5088834;28;20032;-56
2022/06/25 12:38:03;;;;;;;4.97;0.43;;;19.50;85.10;;;;;;5089873;28;20060;-57
2022/06/25 12:40:38;;;;;;;1.23;0.47;;;19.60;84.40;;;;;;5090879;28;20643;-62
2022/06/25 12:43:07;;;;;;;1.80;0.50;;;19.80;84.70;;;;;;5090393;28;20044;-57
2022/06/25 12:45:40;;;;;;;4.15;0.50;;;20.10;83.00;;;;;;5090534;28;20056;-57
2022/06/25 12:48:11;;;;;;;5.70;0.90;;;20.50;84.40;;;;;;5089881;28;20051;-57
2022/06/25 12:50:40;;;;;;;3.03;0.80;;;21.00;83.30;;;;;;5089954;28;20161;-59
2022/06/25 12:53:09;;;;;;;2.03;0.60;;;21.60;80.80;;;;;;5089903;28;20380;-57
2022/06/25 12:55:39;;;;;;;4.85;0.65;;;21.80;78.70;;;;;;5090361;28;20047;-57
2022/06/25 12:58:09;;;;;;;4.82;0.75;;;21.80;78.90;;;;;;5089329;28;20048;-59
2022/06/25 13:00:38;;;;;;;4.60;0.93;;;21.60;76.80;;;;;;5089251;28;20126;-57
2022/06/25 13:03:13;;;;;;;2.97;0.60;;;21.30;78.60;;;;;;5089671;28;20591;-57
2022/06/25 13:05:41;;;;;;;2.67;0.70;;;21.10;78.60;;;;;;5088467;28;20055;-59
2022/06/25 13:08:09;;;;;;;4.70;0.85;;;20.90;77.20;;;;;;5089634;28;20590;-58
2022/06/25 13:10:36;;;;;;;3.92;0.68;;;20.70;77.70;;;;;;5090267;28;20048;-59
2022/06/25 13:13:04;;;;;;;8.25;0.95;;;20.60;80.90;;;;;;5088582;28;20052;-59
2022/06/25 13:15:34;;;;;;;4.10;1.08;;;21.00;83.20;;;;;;5089717;28;20055;-59
2022/06/25 13:18:03;;;;;;;4.55;0.75;;;21.60;82.40;;;;;;5088370;28;20517;-59
2022/06/25 13:20:31;;;;;;;5.63;0.88;;;22.10;78.90;;;;;;5089983;28;20044;-58
2022/06/25 13:22:59;;;;;;;1.33;0.70;;;22.60;78.60;;;;;;5089071;28;20052;-58